Terminal Aerodrome Forecast
Issued by NWS

Home | Current Version | Previous Version | Graphics & Text | Print | Product List | Glossary Off
Versions: 1 2 3 4 5 6 7 8 9 10 11 12 13 14 15 16 17 18 19 20 21 22 23 24 25

000
FTUS43 KDDC 251028 AAA
TAFGCK
TAF AMD
KGCK 251028Z 2510/2606 VRB06KT 6SM -TSRA OVC040CB
      TEMPO 2510/2512 1SM +TSRA OVC025CB
     FM251200 03008KT P6SM VCTS BKN025CB
     FM251800 02011KT 4SM -SHRA OVC010=

USA.gov is the U.S. government's official web portal to all federal, state and local government web resources and services.